createdAt,value
2019-02-22T00:00:45.918Z,77.91
2019-02-22T00:01:45.920Z,76.84
2019-02-22T00:02:45.883Z,77.46
2019-02-22T00:03:45.874Z,77.67
2019-02-22T00:04:45.854Z,77.67
2019-02-22T00:05:45.890Z,77.56
2019-02-22T00:06:45.863Z,77.50
2019-02-22T00:07:45.835Z,77.56
2019-02-22T00:08:45.814Z,77.70
2019-02-22T00:09:49.366Z,77.50
2019-02-22T00:10:45.804Z,77.67
2019-02-22T00:11:45.822Z,77.56
2019-02-22T00:12:45.769Z,77.70
2019-02-22T00:13:45.783Z,77.56
2019-02-22T00:14:45.753Z,77.56
2019-02-22T00:15:45.755Z,77.56
2019-02-22T00:16:45.751Z,77.97
2019-02-22T00:17:45.713Z,77.76
2019-02-22T00:18:45.709Z,77.76
2019-02-22T00:19:45.688Z,77.80
2019-02-22T00:20:45.691Z,77.56
2019-02-22T00:21:45.683Z,77.60
2019-02-22T00:22:45.657Z,77.56
2019-02-22T00:23:45.646Z,78.08
2019-02-22T00:24:45.682Z,77.87
2019-02-22T00:25:45.621Z,77.50
2019-02-22T00:26:45.631Z,77.80
2019-02-22T00:27:45.627Z,77.91
2019-02-22T00:28:45.607Z,77.91
2019-02-22T00:29:45.577Z,77.97
2019-02-22T00:30:45.574Z,77.97
2019-02-22T00:31:45.570Z,78.11
2019-02-22T00:32:45.549Z,77.91
2019-02-22T00:33:45.536Z,77.91
2019-02-22T00:34:45.522Z,77.50
2019-02-22T00:35:45.548Z,77.87
2019-02-22T00:36:45.549Z,78.01
2019-02-22T00:37:45.499Z,77.91
2019-02-22T00:38:45.550Z,77.91
2019-02-22T00:39:45.481Z,77.91
2019-02-22T00:40:45.456Z,77.50
2019-02-22T00:41:45.500Z,77.46
2019-02-22T00:42:45.433Z,77.87
2019-02-22T00:43:45.421Z,77.70
2019-02-22T00:44:45.423Z,77.91
2019-02-22T00:45:45.398Z,77.80
2019-02-22T00:46:45.399Z,77.70
2019-02-22T00:47:45.399Z,77.87
2019-02-22T00:48:45.387Z,77.36
2019-02-22T00:49:45.354Z,77.50
2019-02-22T00:50:45.407Z,77.50
2019-02-22T00:51:45.336Z,78.17
2019-02-22T00:52:45.365Z,78.08
2019-02-22T00:53:45.320Z,78.31
2019-02-22T00:54:45.318Z,77.91
2019-02-22T00:55:45.286Z,78.08
2019-02-22T00:56:45.278Z,78.08
2019-02-22T00:57:45.291Z,78.52
2019-02-22T00:58:45.271Z,78.21
2019-02-22T00:59:45.256Z,78.21
2019-02-22T01:00:45.240Z,78.08
2019-02-22T01:01:45.227Z,78.11
2019-02-22T01:02:45.224Z,77.97
2019-02-22T01:03:45.200Z,78.42
2019-02-22T01:04:45.196Z,78.11
2019-02-22T01:05:45.180Z,78.11
2019-02-22T01:06:45.172Z,78.11
2019-02-22T01:07:45.188Z,78.38
2019-02-22T01:08:45.153Z,78.38
2019-02-22T01:09:45.159Z,77.97
2019-02-22T01:10:45.119Z,78.42
2019-02-22T01:11:45.121Z,78.63
2019-02-22T01:12:45.117Z,78.83
2019-02-22T01:13:45.102Z,78.93
2019-02-22T01:14:45.085Z,78.93
2019-02-22T01:15:45.064Z,78.93
2019-02-22T01:16:45.062Z,78.83
2019-02-22T01:17:45.057Z,78.59
2019-02-22T01:18:45.031Z,78.89
2019-02-22T01:19:45.054Z,78.93
2019-02-22T01:20:53.925Z,79.13
2019-02-22T01:21:46.011Z,79.34
2019-02-22T01:22:45.031Z,78.83
2019-02-22T01:23:44.998Z,79.03
2019-02-22T01:24:44.966Z,78.72
2019-02-22T01:25:44.955Z,78.63
2019-02-22T01:26:44.948Z,78.83
2019-02-22T01:27:44.946Z,78.42
2019-02-22T01:28:44.940Z,78.28
2019-02-22T01:29:44.924Z,78.72
2019-02-22T01:30:44.919Z,78.01
2019-02-22T01:31:44.898Z,77.87
2019-02-22T01:32:44.891Z,78.38
2019-02-22T01:33:44.901Z,78.59
2019-02-22T01:34:44.855Z,78.42
2019-02-22T01:35:44.854Z,77.97
2019-02-22T01:36:44.837Z,78.38
2019-02-22T01:37:44.832Z,78.08
2019-02-22T01:38:44.833Z,78.59
2019-02-22T01:39:44.809Z,77.76
2019-02-22T01:40:44.793Z,77.87
2019-02-22T01:41:44.786Z,78.38
2019-02-22T01:42:44.777Z,78.17
2019-02-22T01:43:44.783Z,78.08
2019-02-22T01:44:44.750Z,77.87
2019-02-22T01:45:44.735Z,78.28
2019-02-22T01:46:44.737Z,78.28
2019-02-22T01:47:44.730Z,78.08
2019-02-22T01:48:44.725Z,78.38
2019-02-22T01:49:44.709Z,78.59
2019-02-22T01:50:44.701Z,77.87
2019-02-22T01:51:44.670Z,77.97
2019-02-22T01:52:44.655Z,78.28
2019-02-22T01:53:44.684Z,78.28
2019-02-22T01:54:44.657Z,78.79
2019-02-22T01:55:44.633Z,78.08
2019-02-22T01:56:44.612Z,77.76
2019-02-22T01:57:44.612Z,78.59
2019-02-22T01:58:48.712Z,78.59
2019-02-22T01:59:44.604Z,78.17
2019-02-22T02:00:44.574Z,78.08
2019-02-22T02:01:44.557Z,78.69
2019-02-22T02:02:44.547Z,78.17
2019-02-22T02:03:44.531Z,78.38
2019-02-22T02:04:44.556Z,78.59
2019-02-22T02:05:44.516Z,79.10
2019-02-22T02:06:44.497Z,78.79
2019-02-22T02:07:44.495Z,79.20
2019-02-22T02:08:44.482Z,79.20
2019-02-22T02:09:44.478Z,79.24
2019-02-22T02:10:53.876Z,79.44
2019-02-22T02:11:45.475Z,79.64
2019-02-22T02:12:44.435Z,79.61
2019-02-22T02:13:44.464Z,79.00
2019-02-22T02:14:44.429Z,79.00
2019-02-22T02:15:44.401Z,79.54
2019-02-22T02:16:44.391Z,79.61
2019-02-22T02:17:44.384Z,79.71
2019-02-22T02:18:44.367Z,79.91
2019-02-22T02:19:44.372Z,79.85
2019-02-22T02:20:44.370Z,79.91
2019-02-22T02:21:44.343Z,80.16
2019-02-22T02:22:44.330Z,80.26
2019-02-22T02:23:44.320Z,80.16
2019-02-22T02:24:44.396Z,80.53
2019-02-22T02:25:44.295Z,80.36
2019-02-22T02:26:44.277Z,80.16
2019-02-22T02:27:44.266Z,80.67
2019-02-22T02:28:44.264Z,80.57
2019-02-22T02:29:44.260Z,80.67
2019-02-22T02:30:44.230Z,80.57
2019-02-22T02:31:44.219Z,80.98
2019-02-22T02:32:44.230Z,80.98
2019-02-22T02:33:44.209Z,80.88
2019-02-22T02:34:44.201Z,80.67
2019-02-22T02:35:44.276Z,80.98
2019-02-22T02:36:44.161Z,80.98
2019-02-22T02:37:44.152Z,81.08
2019-02-22T02:38:44.149Z,81.38
2019-02-22T02:39:44.142Z,81.18
2019-02-22T02:40:44.164Z,81.43
2019-02-22T02:41:44.105Z,81.38
2019-02-22T02:42:44.102Z,81.38
2019-02-22T02:43:44.095Z,81.43
2019-02-22T02:44:44.092Z,81.38
2019-02-22T02:45:44.089Z,81.29
2019-02-22T02:46:44.053Z,81.59
2019-02-22T02:47:44.149Z,81.38
2019-02-22T02:48:44.028Z,81.38
2019-02-22T02:49:44.036Z,81.29
2019-02-22T02:50:44.038Z,81.63
2019-02-22T02:51:43.997Z,81.52
2019-02-22T02:52:44.013Z,81.43
2019-02-22T02:53:44.002Z,81.52
2019-02-22T02:54:43.964Z,81.63
2019-02-22T02:55:43.971Z,81.63
2019-02-22T02:56:46.188Z,81.94
2019-02-22T02:57:44.062Z,81.73
2019-02-22T02:58:43.936Z,81.73
2019-02-22T02:59:43.916Z,81.63
2019-02-22T03:00:43.897Z,81.63
2019-02-22T03:01:43.910Z,81.94
2019-02-22T03:02:43.894Z,82.04
2019-02-22T03:03:43.862Z,82.24
2019-02-22T03:04:43.850Z,82.55
2019-02-22T03:05:43.845Z,82.55
2019-02-22T03:06:43.877Z,82.55
2019-02-22T03:07:43.826Z,82.65
2019-02-22T03:08:43.826Z,82.49
2019-02-22T03:09:43.800Z,83.58
2019-02-22T03:10:43.784Z,83.82
2019-02-22T03:11:43.803Z,84.19
2019-02-22T03:12:43.762Z,83.72
2019-02-22T03:13:43.819Z,83.41
2019-02-22T03:14:43.753Z,83.06
2019-02-22T03:15:43.725Z,83.78
2019-02-22T03:16:43.730Z,83.37
2019-02-22T03:17:43.760Z,83.88
2019-02-22T03:18:43.692Z,83.27
2019-02-22T03:19:43.712Z,83.51
2019-02-22T03:20:43.670Z,83.68
2019-02-22T03:21:43.685Z,83.68
2019-02-22T03:22:43.652Z,83.58
2019-02-22T03:23:43.660Z,83.72
2019-02-22T03:24:43.634Z,83.58
2019-02-22T03:25:43.622Z,83.37
2019-02-22T03:26:43.636Z,83.78
2019-02-22T03:27:43.594Z,83.82
2019-02-22T03:28:43.588Z,83.47
2019-02-22T03:29:43.582Z,83.47
2019-02-22T03:30:43.571Z,84.23
2019-02-22T03:31:43.607Z,84.09
2019-02-22T03:32:43.546Z,83.37
2019-02-22T03:33:43.534Z,83.47
2019-02-22T03:34:43.522Z,83.98
2019-02-22T03:35:43.507Z,83.58
2019-02-22T03:36:43.525Z,83.37
2019-02-22T03:37:43.519Z,84.19
2019-02-22T03:38:43.477Z,83.88
2019-02-22T03:39:43.469Z,83.27
2019-02-22T03:40:43.490Z,83.58
2019-02-22T03:41:43.473Z,84.09
2019-02-22T03:42:43.433Z,83.68
2019-02-22T03:43:43.438Z,83.68
2019-02-22T03:44:43.408Z,83.78
2019-02-22T03:45:43.401Z,84.09
2019-02-22T03:46:43.403Z,83.68
2019-02-22T03:47:43.392Z,83.68
2019-02-22T03:48:43.364Z,83.58
2019-02-22T03:49:43.354Z,84.19
2019-02-22T03:50:43.340Z,83.17
2019-02-22T03:51:43.337Z,83.68
2019-02-22T03:52:43.337Z,83.78
2019-02-22T03:53:43.320Z,83.78
2019-02-22T03:54:43.302Z,83.68
2019-02-22T03:55:43.312Z,83.68
2019-02-22T03:56:43.277Z,84.19
2019-02-22T03:57:43.281Z,84.29
2019-02-22T03:58:43.253Z,83.47
2019-02-22T03:59:43.249Z,83.27
2019-02-22T04:00:43.240Z,83.58
2019-02-22T04:01:43.242Z,83.68
2019-02-22T04:02:43.239Z,83.58
2019-02-22T04:03:43.204Z,83.17
2019-02-22T04:04:43.211Z,83.88
2019-02-22T04:05:43.179Z,83.88
2019-02-22T04:06:43.186Z,83.78
2019-02-22T04:07:43.184Z,83.47
2019-02-22T04:08:43.194Z,83.27
2019-02-22T04:09:43.134Z,83.58
2019-02-22T04:10:43.141Z,83.27
2019-02-22T04:11:45.960Z,83.37
2019-02-22T04:12:43.104Z,83.78
2019-02-22T04:13:43.106Z,83.88
2019-02-22T04:14:43.087Z,83.68
2019-02-22T04:15:43.072Z,83.47
2019-02-22T04:16:43.065Z,84.19
2019-02-22T04:17:43.048Z,83.88
2019-02-22T04:18:43.056Z,83.78
2019-02-22T04:19:43.037Z,83.68
2019-02-22T04:20:43.016Z,83.68
2019-02-22T04:21:43.011Z,83.98
2019-02-22T04:22:44.429Z,83.78
2019-02-22T04:23:43.015Z,83.88
2019-02-22T04:24:42.985Z,83.58
2019-02-22T04:25:42.956Z,84.50
2019-02-22T04:26:42.950Z,84.29
2019-02-22T04:27:42.939Z,83.37
2019-02-22T04:28:42.945Z,83.68
2019-02-22T04:29:42.940Z,83.88
2019-02-22T04:30:42.905Z,83.68
2019-02-22T04:31:42.891Z,84.50
2019-02-22T04:32:42.880Z,84.60
2019-02-22T04:33:42.895Z,84.60
2019-02-22T04:34:42.880Z,84.60
2019-02-22T04:35:42.857Z,84.70
2019-02-22T04:36:42.839Z,85.01
2019-02-22T04:37:42.828Z,85.01
2019-02-22T04:38:42.822Z,85.01
2019-02-22T04:39:42.819Z,84.70
2019-02-22T04:40:42.790Z,83.98
2019-02-22T04:41:42.805Z,84.39
2019-02-22T04:42:42.785Z,83.78
2019-02-22T04:43:42.836Z,84.19
2019-02-22T04:44:42.769Z,83.68
2019-02-22T04:45:42.736Z,83.78
2019-02-22T04:46:42.729Z,83.68
2019-02-22T04:47:42.723Z,83.68
2019-02-22T04:48:42.795Z,83.78
2019-02-22T04:49:42.707Z,83.58
2019-02-22T04:50:42.684Z,83.58
2019-02-22T04:51:42.671Z,83.78
2019-02-22T04:52:42.682Z,83.88
2019-02-22T04:53:42.651Z,83.37
2019-02-22T04:54:42.668Z,83.68
2019-02-22T04:55:42.644Z,83.58
2019-02-22T04:56:42.622Z,83.27
2019-02-22T04:57:42.603Z,83.68
2019-02-22T04:58:42.594Z,83.58
2019-02-22T04:59:42.600Z,83.88
2019-02-22T05:00:42.578Z,83.98
2019-02-22T05:01:42.567Z,83.98
2019-02-22T05:02:42.562Z,83.78
2019-02-22T05:03:42.547Z,83.58
2019-02-22T05:04:42.556Z,83.47
2019-02-22T05:05:42.523Z,83.58
2019-02-22T05:06:42.509Z,83.88
2019-02-22T05:07:42.499Z,83.27
2019-02-22T05:08:42.505Z,83.88
2019-02-22T05:09:42.494Z,83.78
2019-02-22T05:10:42.481Z,83.68
2019-02-22T05:11:42.459Z,83.78
2019-02-22T05:12:42.496Z,83.68
2019-02-22T05:13:42.450Z,83.37
2019-02-22T05:14:42.444Z,83.68
2019-02-22T05:15:42.436Z,83.58
2019-02-22T05:16:42.464Z,83.47
2019-02-22T05:17:42.385Z,83.58
2019-02-22T05:18:42.393Z,83.58
2019-02-22T05:19:42.369Z,83.78
2019-02-22T05:20:42.369Z,83.68
2019-02-22T05:21:42.345Z,83.78
2019-02-22T05:22:42.333Z,84.09
2019-02-22T05:23:42.328Z,83.37
2019-02-22T05:24:42.343Z,83.98
2019-02-22T05:25:42.326Z,83.47
2019-02-22T05:26:42.289Z,83.47
2019-02-22T05:27:42.285Z,83.41
2019-02-22T05:28:42.265Z,83.47
2019-02-22T05:29:42.255Z,83.98
2019-02-22T05:30:42.280Z,83.88
2019-02-22T05:31:42.253Z,84.09
2019-02-22T05:32:42.228Z,84.29
2019-02-22T05:33:42.212Z,83.51
2019-02-22T05:34:42.205Z,83.51
2019-02-22T05:35:42.232Z,84.03
2019-02-22T05:36:44.211Z,84.03
2019-02-22T05:37:42.176Z,84.29
2019-02-22T05:38:42.158Z,84.33
2019-02-22T05:39:42.193Z,84.12
2019-02-22T05:40:42.174Z,85.25
2019-02-22T05:41:42.130Z,84.84
2019-02-22T05:42:42.119Z,84.74
2019-02-22T05:43:42.113Z,84.44
2019-02-22T05:44:42.096Z,84.74
2019-02-22T05:45:42.075Z,84.53
2019-02-22T05:46:42.100Z,84.44
2019-02-22T05:47:42.063Z,84.33
2019-02-22T05:48:42.043Z,84.53
2019-02-22T05:49:42.052Z,84.84
2019-02-22T05:50:42.028Z,84.33
2019-02-22T05:51:42.037Z,84.44
2019-02-22T05:52:42.023Z,84.74
2019-02-22T05:53:42.000Z,83.92
2019-02-22T05:54:41.993Z,84.23
2019-02-22T05:55:44.112Z,84.74
2019-02-22T05:56:41.978Z,84.33
2019-02-22T05:57:41.966Z,84.33
2019-02-22T05:58:41.939Z,84.53
2019-02-22T05:59:41.936Z,84.74
2019-02-22T06:00:41.927Z,84.44
2019-02-22T06:01:41.904Z,84.33
2019-02-22T06:02:41.912Z,84.64
2019-02-22T06:03:41.888Z,84.33
2019-02-22T06:04:41.873Z,84.33
2019-02-22T06:05:41.881Z,84.53
2019-02-22T06:06:41.854Z,84.33
2019-02-22T06:07:41.855Z,84.58
2019-02-22T06:08:41.834Z,84.33
2019-02-22T06:09:41.842Z,84.23
2019-02-22T06:10:41.805Z,83.82
2019-02-22T06:11:41.795Z,84.44
2019-02-22T06:12:41.814Z,83.92
2019-02-22T06:13:41.771Z,84.47
2019-02-22T06:14:41.760Z,84.03
2019-02-22T06:15:41.753Z,84.47
2019-02-22T06:16:41.738Z,84.47
2019-02-22T06:17:41.742Z,85.09
2019-02-22T06:18:41.723Z,84.99
2019-02-22T06:19:41.703Z,83.92
2019-02-22T06:20:41.700Z,84.37
2019-02-22T06:21:41.685Z,84.44
2019-02-22T06:22:41.692Z,84.44
2019-02-22T06:23:41.663Z,84.44
2019-02-22T06:24:41.651Z,83.82
2019-02-22T06:25:41.651Z,83.72
2019-02-22T06:26:41.629Z,84.12
2019-02-22T06:27:41.669Z,84.23
2019-02-22T06:28:41.606Z,83.82
2019-02-22T06:29:41.607Z,83.72
2019-02-22T06:30:41.609Z,83.86
2019-02-22T06:31:41.585Z,83.82
2019-02-22T06:32:42.427Z,83.82
2019-02-22T06:33:41.574Z,83.61
2019-02-22T06:34:41.542Z,83.76
2019-02-22T06:35:41.532Z,83.86
2019-02-22T06:36:41.524Z,84.23
2019-02-22T06:37:41.557Z,83.55
2019-02-22T06:38:41.538Z,83.45
2019-02-22T06:39:41.487Z,84.03
2019-02-22T06:40:41.479Z,84.44
2019-02-22T06:41:41.467Z,83.41
2019-02-22T06:43:42.479Z,83.76
2019-02-22T06:44:41.435Z,84.23
2019-02-22T06:45:41.423Z,83.55
2019-02-22T06:46:41.419Z,84.47
2019-02-22T06:47:41.402Z,84.47
2019-02-22T06:48:41.406Z,84.95
2019-02-22T06:49:41.395Z,85.05
2019-02-22T06:50:41.381Z,84.99
2019-02-22T06:51:41.435Z,85.15
2019-02-22T06:52:41.351Z,84.95
2019-02-22T06:53:41.364Z,84.99
2019-02-22T06:54:41.324Z,85.19
2019-02-22T06:55:41.321Z,85.09
2019-02-22T06:56:41.308Z,84.95
2019-02-22T06:57:41.291Z,85.09
2019-02-22T06:58:41.304Z,85.05
2019-02-22T06:59:41.271Z,85.09
2019-02-22T07:00:41.262Z,84.99
2019-02-22T07:01:41.280Z,85.60
2019-02-22T07:02:41.241Z,84.88
2019-02-22T07:03:41.256Z,84.95
2019-02-22T07:04:41.219Z,84.84
2019-02-22T07:05:41.205Z,85.56
2019-02-22T07:06:41.202Z,84.88
2019-02-22T07:07:41.252Z,85.66
2019-02-22T07:08:41.175Z,85.80
2019-02-22T07:09:41.188Z,84.78
2019-02-22T07:10:41.164Z,84.88
2019-02-22T07:11:41.138Z,84.74
2019-02-22T07:12:41.126Z,85.71
2019-02-22T07:13:41.120Z,85.30
2019-02-22T07:14:41.122Z,85.71
2019-02-22T07:15:41.104Z,85.39
2019-02-22T07:16:41.081Z,85.36
2019-02-22T07:17:41.114Z,84.88
2019-02-22T07:18:41.061Z,85.39
2019-02-22T07:19:41.084Z,85.50
2019-02-22T07:20:41.038Z,85.36
2019-02-22T07:21:52.221Z,85.25
2019-02-22T07:22:42.017Z,85.36
2019-02-22T07:23:41.007Z,85.60
2019-02-22T07:24:40.997Z,85.46
2019-02-22T07:25:41.012Z,84.84
2019-02-22T07:26:40.974Z,85.39
2019-02-22T07:27:40.968Z,85.50
2019-02-22T07:28:40.958Z,85.36
2019-02-22T07:29:40.956Z,85.50
2019-02-22T07:30:40.937Z,85.77
2019-02-22T07:31:40.930Z,85.60
2019-02-22T07:32:41.023Z,85.46
2019-02-22T07:33:40.905Z,85.66
2019-02-22T07:34:40.936Z,85.46
2019-02-22T07:35:40.887Z,85.46
2019-02-22T07:36:40.862Z,85.56
2019-02-22T07:37:40.855Z,86.07
2019-02-22T07:38:40.854Z,85.46
2019-02-22T07:39:40.830Z,85.46
2019-02-22T07:40:40.846Z,85.66
2019-02-22T07:41:40.805Z,85.72
2019-02-22T07:42:40.795Z,85.42
2019-02-22T07:43:40.788Z,86.07
2019-02-22T07:44:40.773Z,85.77
2019-02-22T07:45:40.784Z,85.42
2019-02-22T07:46:40.750Z,85.93
2019-02-22T07:47:40.757Z,86.14
2019-02-22T07:48:40.730Z,85.31
2019-02-22T07:49:40.719Z,85.01
2019-02-22T07:50:40.731Z,85.93
2019-02-22T07:51:40.696Z,85.11
2019-02-22T07:52:40.689Z,85.22
2019-02-22T07:53:40.675Z,85.31
2019-02-22T07:54:40.749Z,85.31
2019-02-22T07:55:40.672Z,85.52
2019-02-22T07:56:40.653Z,85.31
2019-02-22T07:57:40.635Z,85.31
2019-02-22T07:58:40.627Z,84.77
2019-02-22T07:59:40.607Z,84.97
2019-02-22T08:00:40.658Z,84.97
2019-02-22T08:01:47.483Z,84.66
2019-02-22T08:02:41.584Z,84.77
2019-02-22T08:03:40.562Z,84.77
2019-02-22T08:04:40.553Z,85.17
2019-02-22T08:05:40.542Z,84.87
2019-02-22T08:06:42.542Z,84.87
2019-02-22T08:07:40.518Z,85.38
2019-02-22T08:08:40.531Z,84.87
2019-02-22T08:09:40.495Z,83.74
2019-02-22T08:10:40.489Z,83.84
2019-02-22T08:11:40.497Z,83.54
2019-02-22T08:12:40.478Z,83.44
2019-02-22T08:13:40.451Z,83.50
2019-02-22T08:14:40.450Z,82.78
2019-02-22T08:15:40.433Z,81.76
2019-02-22T08:16:40.437Z,81.86
2019-02-22T08:17:40.416Z,81.29
2019-02-22T08:18:40.395Z,81.45
2019-02-22T08:19:40.393Z,81.56
2019-02-22T08:20:40.374Z,80.74
2019-02-22T08:21:40.377Z,80.94
2019-02-22T08:22:40.358Z,80.83
2019-02-22T08:23:40.352Z,80.43
2019-02-22T08:24:40.335Z,80.69
2019-02-22T08:25:40.315Z,80.60
2019-02-22T08:26:40.327Z,81.15
2019-02-22T08:27:52.491Z,80.49
2019-02-22T08:28:41.292Z,80.53
2019-02-22T08:29:40.275Z,80.49
2019-02-22T08:30:40.264Z,80.49
2019-02-22T08:31:40.281Z,80.29
2019-02-22T08:32:40.247Z,79.68
2019-02-22T08:33:40.233Z,78.86
2019-02-22T08:34:40.239Z,79.06
2019-02-22T08:35:40.211Z,79.06
2019-02-22T08:36:40.194Z,79.16
2019-02-22T08:37:40.221Z,79.33
2019-02-22T08:38:40.174Z,78.61
2019-02-22T08:39:40.168Z,78.34
2019-02-22T08:40:40.167Z,77.80
2019-02-22T08:41:40.137Z,78.72
2019-02-22T08:42:40.156Z,77.59
2019-02-22T08:43:40.129Z,77.59
2019-02-22T08:44:40.112Z,77.49
2019-02-22T08:45:40.102Z,77.97
2019-02-22T08:46:40.084Z,78.20
2019-02-22T08:47:40.107Z,77.86
2019-02-22T08:48:40.063Z,78.00
2019-02-22T08:49:40.055Z,78.00
2019-02-22T08:50:40.194Z,77.45
2019-02-22T08:51:40.034Z,77.45
2019-02-22T08:52:40.042Z,77.76
2019-02-22T08:53:40.013Z,76.23
2019-02-22T08:54:47.136Z,76.84
2019-02-22T08:55:40.987Z,75.82
2019-02-22T08:56:40.007Z,75.41
2019-02-22T08:57:39.977Z,75.10
2019-02-22T08:58:39.948Z,75.82
2019-02-22T08:59:39.938Z,75.71
2019-02-22T09:00:39.929Z,75.31
2019-02-22T09:01:39.914Z,75.17
2019-02-22T09:02:39.955Z,75.68
2019-02-22T09:03:49.682Z,75.37
2019-02-22T09:04:40.884Z,76.40
2019-02-22T09:05:39.871Z,75.65
2019-02-22T09:06:39.861Z,75.24
2019-02-22T09:07:39.852Z,74.93
2019-02-22T09:08:39.856Z,75.34
2019-02-22T09:09:39.828Z,74.29
2019-02-22T09:10:39.837Z,74.42
2019-02-22T09:11:39.806Z,73.88
2019-02-22T09:12:39.794Z,74.08
2019-02-22T09:13:43.504Z,74.08
2019-02-22T09:14:39.770Z,73.06
2019-02-22T09:15:39.757Z,73.77
2019-02-22T09:16:39.761Z,72.55
2019-02-22T09:17:39.741Z,72.04
2019-02-22T09:18:39.753Z,72.24
2019-02-22T09:19:39.719Z,72.04
2019-02-22T09:20:39.705Z,72.45
2019-02-22T09:21:39.691Z,72.75
2019-02-22T09:22:39.696Z,72.75
2019-02-22T09:23:39.691Z,72.52
2019-02-22T09:24:39.673Z,72.41
2019-02-22T09:25:39.654Z,72.00
2019-02-22T09:26:39.642Z,71.70
2019-02-22T09:27:39.626Z,71.67
2019-02-22T09:28:39.622Z,72.92
2019-02-22T09:29:39.631Z,71.67
2019-02-22T09:30:39.597Z,71.36
2019-02-22T09:31:39.588Z,71.67
2019-02-22T09:32:39.571Z,70.54
2019-02-22T09:33:39.569Z,71.06
2019-02-22T09:34:39.579Z,71.77
2019-02-22T09:35:39.583Z,70.54
2019-02-22T09:36:39.527Z,71.53
2019-02-22T09:37:39.615Z,69.70
2019-02-22T09:38:39.508Z,70.10
2019-02-22T09:39:39.528Z,70.31
2019-02-22T09:40:39.487Z,70.41
2019-02-22T09:41:39.475Z,70.00
2019-02-22T09:42:39.464Z,68.75
2019-02-22T09:43:39.454Z,68.21
2019-02-22T09:44:39.484Z,68.68
2019-02-22T09:45:39.428Z,65.30
2019-02-22T09:46:39.420Z,68.58
2019-02-22T09:47:39.417Z,66.52
2019-02-22T09:48:39.408Z,65.60
2019-02-22T09:49:39.382Z,65.60
2019-02-22T09:50:39.398Z,66.49
2019-02-22T09:51:41.276Z,65.26
2019-02-22T09:52:39.361Z,65.57
2019-02-22T09:53:39.341Z,65.57
2019-02-22T09:54:39.334Z,64.45
2019-02-22T09:55:39.345Z,64.04
2019-02-22T09:56:39.308Z,63.33
2019-02-22T09:57:39.297Z,63.81
2019-02-22T09:58:39.290Z,61.30
2019-02-22T09:59:39.282Z,61.17
2019-02-22T10:00:39.297Z,61.27
2019-02-22T10:01:39.252Z,61.68
2019-02-22T10:02:39.242Z,61.17
2019-02-22T10:03:39.234Z,61.65
2019-02-22T10:04:39.218Z,61.04
2019-02-22T10:05:39.234Z,60.22
2019-02-22T10:06:39.204Z,60.10
2019-02-22T10:07:39.188Z,61.24
2019-02-22T10:08:39.186Z,59.28
2019-02-22T10:09:39.174Z,59.08
2019-02-22T10:10:39.190Z,57.76
2019-02-22T10:11:39.147Z,58.29
2019-02-22T10:12:39.134Z,59.59
2019-02-22T10:13:39.117Z,58.67
2019-02-22T10:14:39.107Z,60.91
2019-02-22T10:15:39.112Z,59.59
2019-02-22T10:16:39.111Z,58.27
2019-02-22T10:17:39.083Z,59.08
2019-02-22T10:18:39.062Z,58.20
2019-02-22T10:19:39.088Z,58.27
2019-02-22T10:20:39.051Z,57.25
2019-02-22T10:21:39.050Z,56.95
2019-02-22T10:22:39.022Z,54.44
2019-02-22T10:23:39.011Z,56.67
2019-02-22T10:24:38.997Z,56.98
2019-02-22T10:25:38.985Z,56.77
2019-02-22T10:26:39.008Z,57.08
2019-02-22T10:27:38.966Z,57.97
2019-02-22T10:28:38.961Z,58.24
2019-02-22T10:29:38.944Z,53.37
2019-02-22T10:30:38.930Z,54.39
2019-02-22T10:31:38.940Z,55.78
2019-02-22T10:32:38.907Z,56.79
2019-02-22T10:33:38.901Z,53.96
2019-02-22T10:34:38.893Z,52.44
2019-02-22T10:35:38.887Z,53.78
2019-02-22T10:36:45.284Z,52.76
2019-02-22T10:37:39.874Z,52.15
2019-02-22T10:38:38.852Z,54.90
2019-02-22T10:39:38.834Z,55.10
2019-02-22T10:40:39.405Z,55.40
2019-02-22T10:41:38.817Z,54.49
2019-02-22T10:42:38.816Z,54.08
2019-02-22T10:43:38.792Z,54.31
2019-02-22T10:44:38.774Z,54.92
2019-02-22T10:45:38.847Z,54.72
2019-02-22T10:46:38.753Z,55.53
2019-02-22T10:47:38.769Z,54.33
2019-02-22T10:48:38.735Z,55.76
2019-02-22T10:49:38.801Z,53.93
2019-02-22T10:50:38.716Z,55.18
2019-02-22T10:51:38.698Z,56.09
2019-02-22T10:52:38.711Z,56.60
2019-02-22T10:53:38.706Z,58.53
2019-02-22T10:54:38.664Z,56.77
2019-02-22T10:55:38.653Z,58.22
2019-02-22T10:56:39.398Z,57.00
2019-02-22T10:57:38.653Z,58.22
2019-02-22T10:58:38.630Z,57.10
2019-02-22T10:59:38.611Z,57.03
2019-02-22T11:00:38.604Z,56.73
2019-02-22T11:01:38.593Z,57.13
2019-02-22T11:02:38.588Z,58.45
2019-02-22T11:03:38.600Z,58.86
2019-02-22T11:04:38.559Z,58.45
2019-02-22T11:05:38.574Z,59.09
2019-02-22T11:06:38.538Z,59.77
2019-02-22T11:07:38.537Z,58.76
2019-02-22T11:08:38.530Z,58.28
2019-02-22T11:09:38.501Z,58.48
2019-02-22T11:10:38.485Z,58.17
2019-02-22T11:11:38.493Z,59.19
2019-02-22T11:12:38.481Z,58.99
2019-02-22T11:13:38.458Z,58.99
2019-02-22T11:14:38.444Z,59.01
2019-02-22T11:15:38.437Z,58.99
2019-02-22T11:16:38.421Z,58.99
2019-02-22T11:17:38.432Z,59.50
2019-02-22T11:18:39.372Z,60.24
2019-02-22T11:19:38.389Z,59.70
2019-02-22T11:20:38.374Z,60.21
2019-02-22T11:21:38.420Z,58.99
2019-02-22T11:22:38.371Z,60.92
2019-02-22T11:23:38.364Z,60.14
2019-02-22T11:24:38.329Z,61.02
2019-02-22T11:25:38.322Z,60.52
2019-02-22T11:26:38.310Z,61.43
2019-02-22T11:27:38.304Z,61.02
2019-02-22T11:28:38.299Z,60.21
2019-02-22T11:29:38.281Z,61.36
2019-02-22T11:30:38.273Z,61.05
2019-02-22T11:31:38.270Z,60.75
2019-02-22T11:32:38.244Z,60.14
2019-02-22T11:33:38.273Z,61.56
2019-02-22T11:34:38.229Z,59.83
2019-02-22T11:35:38.212Z,59.35
2019-02-22T11:36:38.196Z,60.14
2019-02-22T11:37:38.185Z,60.37
2019-02-22T11:38:38.195Z,61.29
2019-02-22T11:39:38.177Z,60.24
2019-02-22T11:40:38.160Z,61.69
2019-02-22T11:41:38.141Z,61.49
2019-02-22T11:42:38.135Z,61.69
2019-02-22T11:43:38.129Z,62.10
2019-02-22T11:44:40.365Z,62.33
2019-02-22T11:45:38.099Z,62.13
2019-02-22T11:46:38.093Z,63.04
2019-02-22T11:47:38.089Z,63.76
2019-02-22T11:48:38.068Z,62.94
2019-02-22T11:49:38.078Z,63.76
2019-02-22T11:50:38.041Z,61.93
2019-02-22T11:51:38.042Z,62.02
2019-02-22T11:52:38.019Z,61.31
2019-02-22T11:53:38.050Z,62.54
2019-02-22T11:54:38.012Z,61.72
2019-02-22T11:55:37.990Z,62.33
2019-02-22T11:56:37.983Z,62.33
2019-02-22T11:57:37.975Z,63.24
2019-02-22T11:58:37.990Z,63.24
2019-02-22T11:59:37.949Z,61.93
2019-02-22T12:00:37.980Z,61.82
2019-02-22T12:01:37.929Z,62.54
2019-02-22T12:02:37.957Z,62.13
2019-02-22T12:03:37.917Z,61.93
2019-02-22T12:04:37.910Z,61.93
2019-02-22T12:05:37.896Z,62.13
2019-02-22T12:06:37.884Z,62.43
2019-02-22T12:07:37.867Z,61.82
2019-02-22T12:08:37.854Z,62.23
2019-02-22T12:09:37.840Z,62.33
2019-02-22T12:10:37.854Z,63.35
2019-02-22T12:11:37.819Z,62.13
2019-02-22T12:12:37.803Z,61.41
2019-02-22T12:13:37.828Z,62.02
2019-02-22T12:14:37.788Z,61.41
2019-02-22T12:15:37.786Z,63.45
2019-02-22T12:16:37.760Z,61.52
2019-02-22T12:17:37.881Z,61.41
2019-02-22T12:18:37.743Z,61.65
2019-02-22T12:19:37.725Z,62.16
2019-02-22T12:20:37.750Z,61.54
2019-02-22T12:21:37.708Z,62.26
2019-02-22T12:22:37.692Z,61.95
2019-02-22T12:23:37.692Z,62.26
2019-02-22T12:24:37.671Z,60.53
2019-02-22T12:25:37.691Z,62.26
2019-02-22T12:26:37.649Z,60.83
2019-02-22T12:27:37.641Z,62.16
2019-02-22T12:28:37.628Z,61.88
2019-02-22T12:29:37.616Z,61.85
2019-02-22T12:30:37.611Z,62.05
2019-02-22T12:31:37.619Z,60.83
2019-02-22T12:32:39.601Z,60.53
2019-02-22T12:33:37.575Z,61.75
2019-02-22T12:34:37.569Z,62.39
2019-02-22T12:35:37.564Z,61.57
2019-02-22T12:36:37.566Z,61.07
2019-02-22T12:37:37.531Z,61.78
2019-02-22T12:38:37.521Z,62.46
2019-02-22T12:39:37.519Z,61.88
2019-02-22T12:40:37.509Z,61.44
2019-02-22T12:41:37.513Z,61.04
2019-02-22T12:42:37.478Z,61.47
2019-02-22T12:43:37.464Z,60.55
2019-02-22T12:44:37.457Z,61.65
2019-02-22T12:45:37.448Z,60.96
2019-02-22T12:46:37.519Z,61.88
2019-02-22T12:47:37.414Z,61.24
2019-02-22T12:48:37.407Z,61.24
2019-02-22T12:49:40.044Z,60.93
2019-02-22T12:50:37.397Z,60.25
2019-02-22T12:51:37.384Z,61.47
2019-02-22T12:52:37.378Z,61.78
2019-02-22T12:53:37.351Z,62.29